Albany, Vermont
Current Conditions -  °F | °C
As of 7:15 PM on Sunday 25 Jan 2015 (Local Time) from KEFK Reporting Station
Clear Clear  
Wind Chill: -12°   Ceiling: Unl
Heat Index:   Visibility: 10mi
Dew Point: -7°   Wind: 8mph
Humidity: 65%   Direction: 250°WSW
Pressure: 29.94"   Gusts: NA
Location:  44.73°N, 72.38°W
Report Text: KEFK 260015Z AUTO 25007KT 10SM CLR M17/M22 A2994 RMK AO2 T11681219
Loading
Personal Weather Stations






























Interactive Weather Map New forecast layout! Learn more

10-Day Weather Forecast

Advertisements
Track Severe Weather on mobile